createdAt,value
2022-12-29T00:00:25.425Z,21.77
2022-12-29T00:02:54.581Z,21.63
2022-12-29T00:05:23.843Z,22.43
2022-12-29T00:07:52.848Z,22.00
2022-12-29T00:10:21.840Z,22.30
2022-12-29T00:13:09.695Z,22.50
2022-12-29T00:15:39.497Z,23.50
2022-12-29T00:18:09.220Z,22.87
2022-12-29T00:20:56.408Z,24.10
2022-12-29T00:23:43.182Z,23.73
2022-12-29T00:26:33.530Z,25.57
2022-12-29T00:29:24.553Z,26.60
2022-12-29T00:32:11.070Z,26.83
2022-12-29T00:34:57.478Z,27.47
2022-12-29T00:37:46.705Z,28.67
2022-12-29T00:40:51.462Z,29.53
2022-12-29T00:43:37.523Z,28.93
2022-12-29T00:46:08.194Z,29.40
2022-12-29T00:48:54.836Z,29.47
2022-12-29T00:51:24.017Z,29.67
2022-12-29T00:53:52.986Z,29.37
2022-12-29T00:56:22.076Z,27.90
2022-12-29T00:58:51.118Z,28.60
2022-12-29T01:01:21.917Z,27.43
2022-12-29T01:03:51.287Z,26.70
2022-12-29T01:06:22.302Z,27.40
2022-12-29T01:09:11.868Z,27.30
2022-12-29T01:11:40.528Z,27.80
2022-12-29T01:14:09.766Z,27.23
2022-12-29T01:16:40.812Z,26.07
2022-12-29T01:19:10.137Z,24.83
2022-12-29T01:21:39.356Z,25.07
2022-12-29T01:24:09.030Z,25.57
2022-12-29T01:26:38.223Z,25.67
2022-12-29T01:29:07.366Z,26.37
2022-12-29T01:31:36.534Z,26.60
2022-12-29T01:34:07.530Z,29.30
2022-12-29T01:36:37.334Z,28.00
2022-12-29T01:39:25.084Z,27.33
2022-12-29T01:41:54.219Z,29.77
2022-12-29T01:44:52.256Z,28.13
2022-12-29T01:47:29.630Z,28.50
2022-12-29T01:50:03.830Z,28.47
2022-12-29T01:52:36.749Z,28.53
2022-12-29T01:55:07.675Z,31.50
2022-12-29T01:57:39.656Z,29.20
2022-12-29T02:00:27.021Z,32.03
2022-12-29T02:02:57.216Z,38.80
2022-12-29T02:05:32.253Z,40.10
2022-12-29T02:08:02.930Z,33.60
2022-12-29T02:10:35.683Z,34.47
2022-12-29T02:13:05.003Z,32.23
2022-12-29T02:15:47.038Z,30.47
2022-12-29T02:18:28.838Z,32.87
2022-12-29T02:21:31.910Z,31.00
2022-12-29T02:24:34.768Z,29.80
2022-12-29T02:27:40.063Z,30.40
2022-12-29T02:30:18.205Z,30.57
2022-12-29T02:32:56.856Z,31.90
2022-12-29T02:35:33.870Z,29.77
2022-12-29T02:38:23.387Z,31.60
2022-12-29T02:41:00.895Z,32.47
2022-12-29T02:43:36.163Z,31.47
2022-12-29T02:46:13.239Z,31.53
2022-12-29T02:48:49.617Z,30.87
2022-12-29T02:51:24.095Z,32.60
2022-12-29T02:54:12.382Z,32.43
2022-12-29T02:56:41.679Z,32.17
2022-12-29T02:59:11.609Z,37.83
2022-12-29T03:02:07.863Z,33.37
2022-12-29T03:04:50.027Z,32.97
2022-12-29T03:07:26.628Z,33.70
2022-12-29T03:10:02.586Z,39.83
2022-12-29T03:12:53.440Z,39.97
2022-12-29T03:15:43.630Z,34.27
2022-12-29T03:18:17.485Z,40.20
2022-12-29T03:20:53.725Z,36.20
2022-12-29T03:23:25.199Z,33.27
2022-12-29T03:26:00.585Z,34.37
2022-12-29T03:28:35.662Z,35.30
2022-12-29T03:31:06.975Z,35.40
2022-12-29T03:33:40.603Z,36.00
2022-12-29T03:36:19.234Z,48.00
2022-12-29T03:38:53.025Z,65.53
2022-12-29T03:41:28.170Z,67.30
2022-12-29T03:43:57.631Z,76.20
2022-12-29T03:46:26.755Z,78.63
2022-12-29T03:48:55.911Z,60.67
2022-12-29T03:51:27.652Z,48.67
2022-12-29T03:53:57.289Z,44.17
2022-12-29T03:56:26.484Z,42.23
2022-12-29T03:58:56.444Z,40.80
2022-12-29T04:01:34.693Z,45.60
2022-12-29T04:04:04.335Z,45.20
2022-12-29T04:06:35.256Z,43.53
2022-12-29T04:09:07.931Z,44.37
2022-12-29T04:11:55.801Z,40.37
2022-12-29T04:14:25.113Z,40.83
2022-12-29T04:16:55.751Z,37.67
2022-12-29T04:19:25.804Z,41.57
2022-12-29T04:21:56.421Z,55.90
2022-12-29T04:24:26.184Z,47.93
2022-12-29T04:26:55.514Z,46.87
2022-12-29T04:29:44.875Z,70.03
2022-12-29T04:32:32.865Z,83.30
2022-12-29T04:35:02.063Z,130.83
2022-12-29T04:37:32.595Z,57.50
2022-12-29T04:40:01.772Z,50.97
2022-12-29T04:42:32.002Z,118.07
2022-12-29T04:45:02.784Z,105.37
2022-12-29T04:47:47.712Z,72.20
2022-12-29T04:50:35.476Z,63.23
2022-12-29T04:53:18.718Z,92.07
2022-12-29T04:55:52.421Z,110.67
2022-12-29T04:58:23.019Z,124.10
2022-12-29T05:00:53.948Z,117.33
2022-12-29T05:03:26.488Z,124.03
2022-12-29T05:05:57.160Z,132.27
2022-12-29T05:08:28.538Z,130.80
2022-12-29T05:11:00.976Z,123.27
2022-12-29T05:13:30.235Z,114.80
2022-12-29T05:16:00.112Z,105.77
2022-12-29T05:18:30.338Z,101.53
2022-12-29T05:21:01.357Z,114.57
2022-12-29T05:23:32.520Z,102.57
2022-12-29T05:26:06.275Z,94.23
2022-12-29T05:28:46.896Z,79.87
2022-12-29T05:31:20.767Z,83.00
2022-12-29T05:34:08.148Z,112.60
2022-12-29T05:36:38.250Z,108.57
2022-12-29T05:39:11.485Z,97.43
2022-12-29T05:41:40.846Z,97.27
2022-12-29T05:44:13.367Z,111.27
2022-12-29T05:46:57.934Z,129.10
2022-12-29T05:49:47.531Z,159.93
2022-12-29T05:52:41.137Z,126.37
2022-12-29T05:55:12.713Z,112.17
2022-12-29T05:57:42.677Z,102.40
2022-12-29T06:00:18.253Z,104.53
2022-12-29T06:02:49.220Z,124.00
2022-12-29T06:05:20.082Z,133.23
2022-12-29T06:07:49.914Z,130.60
2022-12-29T06:10:22.442Z,120.97
2022-12-29T06:13:02.111Z,118.13
2022-12-29T06:15:33.670Z,126.43
2022-12-29T06:18:03.304Z,123.53
2022-12-29T06:20:32.444Z,106.17
2022-12-29T06:23:01.697Z,133.80
2022-12-29T06:25:34.763Z,115.97
2022-12-29T06:28:06.357Z,90.83
2022-12-29T06:30:35.806Z,79.87
2022-12-29T06:33:05.342Z,71.33
2022-12-29T06:35:35.047Z,64.83
2022-12-29T06:38:04.119Z,62.60
2022-12-29T06:40:34.923Z,52.40
2022-12-29T06:43:31.611Z,57.20
2022-12-29T06:46:07.472Z,57.40
2022-12-29T06:48:36.823Z,50.37
2022-12-29T06:51:06.311Z,50.30
2022-12-29T06:53:35.419Z,53.60
2022-12-29T06:56:06.337Z,45.20
2022-12-29T06:58:35.557Z,47.23
2022-12-29T07:01:04.675Z,47.60
2022-12-29T07:03:33.795Z,43.03
2022-12-29T07:06:03.099Z,43.33
2022-12-29T07:08:32.254Z,43.10
2022-12-29T07:11:01.338Z,42.03
2022-12-29T07:13:33.900Z,42.37
2022-12-29T07:16:07.280Z,48.17
2022-12-29T07:18:37.026Z,46.20
2022-12-29T07:21:06.784Z,45.53
2022-12-29T07:23:36.402Z,42.20
2022-12-29T07:26:07.689Z,44.70
2022-12-29T07:28:39.298Z,38.57
2022-12-29T07:31:27.115Z,34.00
2022-12-29T07:33:56.639Z,36.83
2022-12-29T07:36:30.779Z,37.00
2022-12-29T07:39:03.325Z,33.80
2022-12-29T07:41:32.369Z,35.07
2022-12-29T07:44:06.138Z,38.70
2022-12-29T07:46:57.764Z,34.23
2022-12-29T07:49:28.053Z,35.63
2022-12-29T07:51:57.079Z,38.17
2022-12-29T07:54:26.171Z,35.83
2022-12-29T07:56:55.891Z,37.53
2022-12-29T07:59:26.345Z,37.77
2022-12-29T08:01:55.583Z,35.60
2022-12-29T08:04:24.851Z,36.03
2022-12-29T08:06:53.912Z,38.77
2022-12-29T08:09:24.345Z,38.97
2022-12-29T08:12:13.203Z,35.50
2022-12-29T08:14:43.596Z,35.40
2022-12-29T08:17:12.653Z,55.67
2022-12-29T08:19:43.835Z,36.40
2022-12-29T08:22:12.826Z,33.30
2022-12-29T08:24:41.747Z,43.63
2022-12-29T08:27:18.183Z,47.87
2022-12-29T08:29:50.931Z,66.87
2022-12-29T08:32:19.921Z,44.90
2022-12-29T08:34:49.011Z,46.47
2022-12-29T08:37:18.057Z,47.97
2022-12-29T08:39:47.158Z,33.37
2022-12-29T08:42:16.205Z,50.27
2022-12-29T08:44:45.392Z,55.73
2022-12-29T08:47:15.977Z,38.77
2022-12-29T08:49:45.356Z,41.90
2022-12-29T08:52:14.427Z,32.60
2022-12-29T08:54:43.438Z,54.70
2022-12-29T08:57:13.727Z,49.20
2022-12-29T08:59:53.702Z,29.77
2022-12-29T09:02:24.975Z,55.37
2022-12-29T09:04:54.783Z,42.37
2022-12-29T09:07:23.855Z,35.93
2022-12-29T09:09:53.293Z,36.10
2022-12-29T09:12:22.302Z,72.03
2022-12-29T09:14:51.382Z,38.67
2022-12-29T09:17:37.943Z,36.53
2022-12-29T09:20:10.029Z,58.50
2022-12-29T09:22:39.591Z,38.60
2022-12-29T09:25:10.300Z,95.40
2022-12-29T09:27:39.863Z,50.13
2022-12-29T09:30:11.449Z,42.10
2022-12-29T09:32:45.075Z,29.60
2022-12-29T09:35:19.481Z,64.80
2022-12-29T09:37:48.905Z,44.37
2022-12-29T09:40:28.457Z,54.53
2022-12-29T09:43:11.787Z,46.40
2022-12-29T09:45:46.318Z,39.13
2022-12-29T09:48:19.951Z,67.83
2022-12-29T09:50:58.371Z,32.10
2022-12-29T09:53:32.946Z,69.23
2022-12-29T09:56:23.429Z,29.03
2022-12-29T09:58:58.267Z,39.60
2022-12-29T10:01:33.575Z,45.03
2022-12-29T10:04:06.352Z,45.03
2022-12-29T10:07:27.966Z,41.00
2022-12-29T10:09:36.607Z,26.47
2022-12-29T10:12:18.319Z,32.17
2022-12-29T10:15:00.860Z,45.63
2022-12-29T10:17:40.611Z,34.17
2022-12-29T10:20:31.589Z,61.53
2022-12-29T10:23:23.186Z,69.10
2022-12-29T10:25:55.073Z,36.13
2022-12-29T10:28:27.595Z,38.17
2022-12-29T10:31:05.079Z,48.97
2022-12-29T10:33:41.901Z,35.40
2022-12-29T10:36:19.430Z,32.73
2022-12-29T10:39:00.219Z,34.23
2022-12-29T10:41:35.421Z,36.67
2022-12-29T10:44:04.521Z,37.13
2022-12-29T10:46:38.581Z,77.13
2022-12-29T10:49:29.447Z,89.50
2022-12-29T10:52:02.727Z,96.03
2022-12-29T10:54:41.520Z,90.87
2022-12-29T10:57:15.037Z,83.47
2022-12-29T10:59:44.717Z,89.43
2022-12-29T11:02:46.037Z,95.90
2022-12-29T11:05:25.391Z,94.33
2022-12-29T11:07:59.865Z,95.33
2022-12-29T11:10:39.993Z,92.33
2022-12-29T11:13:15.756Z,95.77
2022-12-29T11:15:46.999Z,101.13
2022-12-29T11:18:25.569Z,103.93
2022-12-29T11:20:56.675Z,103.23
2022-12-29T11:23:29.282Z,102.97
2022-12-29T11:26:17.991Z,105.60
2022-12-29T11:28:49.217Z,90.43
2022-12-29T11:31:24.370Z,92.30
2022-12-29T11:33:53.601Z,93.33
2022-12-29T11:36:25.435Z,103.07
2022-12-29T11:38:57.197Z,101.33
2022-12-29T11:41:31.051Z,105.17
2022-12-29T11:44:01.734Z,108.03
2022-12-29T11:46:34.128Z,97.30
2022-12-29T11:49:05.510Z,100.37
2022-12-29T11:51:41.569Z,100.57
2022-12-29T11:54:21.577Z,105.23
2022-12-29T11:56:53.614Z,104.20
2022-12-29T11:59:42.349Z,104.60
2022-12-29T12:02:43.158Z,99.70
2022-12-29T12:05:22.974Z,103.40
2022-12-29T12:07:59.586Z,110.20
2022-12-29T12:10:51.626Z,113.57
2022-12-29T12:13:28.032Z,114.67
2022-12-29T12:16:04.616Z,104.33
2022-12-29T12:18:56.113Z,106.80
2022-12-29T12:21:30.510Z,116.77
2022-12-29T12:24:12.283Z,106.13
2022-12-29T12:26:47.193Z,103.27
2022-12-29T12:29:23.399Z,106.93
2022-12-29T12:31:57.640Z,111.10
2022-12-29T12:34:33.057Z,108.37
2022-12-29T12:37:39.008Z,108.60
2022-12-29T12:40:42.305Z,121.63
2022-12-29T12:43:35.833Z,102.77
2022-12-29T12:46:31.596Z,103.30
2022-12-29T12:49:25.828Z,104.03
2022-12-29T12:52:05.525Z,99.17
2022-12-29T12:54:50.436Z,109.77
2022-12-29T12:57:27.373Z,109.63
2022-12-29T13:00:06.145Z,106.67
2022-12-29T13:02:51.095Z,108.83
2022-12-29T13:05:34.150Z,101.90
2022-12-29T13:08:35.125Z,109.47
2022-12-29T13:11:31.387Z,109.43
2022-12-29T13:14:25.651Z,98.83
2022-12-29T13:17:02.520Z,99.83
2022-12-29T13:19:37.173Z,107.30
2022-12-29T13:22:12.220Z,97.13
2022-12-29T13:24:55.563Z,98.20
2022-12-29T13:27:36.944Z,108.93
2022-12-29T13:30:11.605Z,107.87
2022-12-29T13:32:54.546Z,98.57
2022-12-29T13:35:35.967Z,99.83
2022-12-29T13:38:12.975Z,105.70
2022-12-29T13:40:47.292Z,102.20
2022-12-29T13:43:17.390Z,104.83
2022-12-29T13:45:47.798Z,101.13
2022-12-29T13:48:22.722Z,102.97
2022-12-29T13:50:56.172Z,109.77
2022-12-29T13:53:36.348Z,115.30
2022-12-29T13:56:13.946Z,109.87
2022-12-29T13:58:50.448Z,105.77
2022-12-29T14:01:25.381Z,109.63
2022-12-29T14:03:56.884Z,113.70
2022-12-29T14:06:29.326Z,120.43
2022-12-29T14:09:00.958Z,117.07
2022-12-29T14:11:34.942Z,106.97
2022-12-29T14:14:17.018Z,122.07
2022-12-29T14:16:47.030Z,117.40
2022-12-29T14:19:19.397Z,120.67
2022-12-29T14:21:59.832Z,123.23
2022-12-29T14:24:47.590Z,135.27
2022-12-29T14:27:55.219Z,157.80
2022-12-29T14:30:50.332Z,157.20
2022-12-29T14:33:20.205Z,154.80
2022-12-29T14:35:53.550Z,163.07
2022-12-29T14:38:30.168Z,199.33
2022-12-29T14:41:20.858Z,243.17
2022-12-29T14:44:03.491Z,252.53
2022-12-29T14:46:51.362Z,231.03
2022-12-29T14:49:24.320Z,181.03
2022-12-29T14:51:56.010Z,170.67
2022-12-29T14:54:50.839Z,167.47
2022-12-29T14:57:32.279Z,176.10
2022-12-29T15:00:08.340Z,177.50
2022-12-29T15:02:43.135Z,187.70
2022-12-29T15:05:33.419Z,175.50
2022-12-29T15:08:05.393Z,177.27
2022-12-29T15:10:43.255Z,196.63
2022-12-29T15:13:20.720Z,198.17
2022-12-29T15:15:50.627Z,204.27
2022-12-29T15:18:31.375Z,205.13
2022-12-29T15:21:02.977Z,210.47
2022-12-29T15:23:34.294Z,273.87
2022-12-29T15:26:08.654Z,271.50
2022-12-29T15:28:43.364Z,264.23
2022-12-29T15:31:15.856Z,234.53
2022-12-29T15:33:48.699Z,222.40
2022-12-29T15:36:22.222Z,193.37
2022-12-29T15:38:51.925Z,190.80
2022-12-29T15:41:32.229Z,219.20
2022-12-29T15:44:12.080Z,217.90
2022-12-29T15:46:41.737Z,190.17
2022-12-29T15:49:11.808Z,211.40
2022-12-29T15:52:00.048Z,251.37
2022-12-29T15:54:33.894Z,260.30
2022-12-29T15:57:04.645Z,197.70
2022-12-29T15:59:35.414Z,215.90
2022-12-29T16:02:11.967Z,167.50
2022-12-29T16:05:09.335Z,161.13
2022-12-29T16:07:40.833Z,192.17
2022-12-29T16:10:30.457Z,169.13
2022-12-29T16:13:07.730Z,182.63
2022-12-29T16:15:37.346Z,221.23
2022-12-29T16:18:06.639Z,239.77
2022-12-29T16:20:42.787Z,251.50
2022-12-29T16:23:22.743Z,220.67
2022-12-29T16:25:52.267Z,237.87
2022-12-29T16:28:25.636Z,256.47
2022-12-29T16:31:04.551Z,287.97
2022-12-29T16:33:54.337Z,307.10
2022-12-29T16:36:30.328Z,297.50
2022-12-29T16:39:28.778Z,296.77
2022-12-29T16:41:58.525Z,279.50
2022-12-29T16:44:30.290Z,298.73
2022-12-29T16:47:18.262Z,316.17
2022-12-29T16:49:56.491Z,326.43
2022-12-29T16:52:32.283Z,255.87
2022-12-29T16:55:02.612Z,241.40
2022-12-29T16:57:35.073Z,233.17
2022-12-29T17:00:10.195Z,220.20
2022-12-29T17:02:46.073Z,222.93
2022-12-29T17:05:16.174Z,240.17
2022-12-29T17:07:45.866Z,212.03
2022-12-29T17:10:15.966Z,211.60
2022-12-29T17:12:46.876Z,195.07
2022-12-29T17:15:25.002Z,181.40
2022-12-29T17:18:14.391Z,169.03
2022-12-29T17:20:43.590Z,180.57
2022-12-29T17:23:25.927Z,178.10
2022-12-29T17:26:14.892Z,160.40
2022-12-29T17:28:44.139Z,181.63
2022-12-29T17:31:15.700Z,171.97
2022-12-29T17:33:44.968Z,180.77
2022-12-29T17:36:14.185Z,176.13
2022-12-29T17:38:43.218Z,183.40
2022-12-29T17:41:16.877Z,188.13
2022-12-29T17:43:46.012Z,171.37
2022-12-29T17:46:16.591Z,162.60
2022-12-29T17:48:53.184Z,179.80
2022-12-29T17:51:23.545Z,178.60
2022-12-29T17:53:53.427Z,175.43
2022-12-29T17:56:22.496Z,176.43
2022-12-29T17:58:52.672Z,181.53
2022-12-29T18:01:31.053Z,203.07
2022-12-29T18:04:02.974Z,216.43
2022-12-29T18:06:32.277Z,202.87
2022-12-29T18:09:01.383Z,205.27
2022-12-29T18:11:30.564Z,213.90
2022-12-29T18:13:59.947Z,189.90
2022-12-29T18:16:30.562Z,185.43
2022-12-29T18:18:59.551Z,194.97
2022-12-29T18:21:28.946Z,191.30
2022-12-29T18:23:57.942Z,197.30
2022-12-29T18:26:29.225Z,206.50
2022-12-29T18:28:58.778Z,197.80
2022-12-29T18:31:31.141Z,194.27
2022-12-29T18:34:02.008Z,195.70
2022-12-29T18:36:31.566Z,207.57
2022-12-29T18:39:00.663Z,231.40
2022-12-29T18:41:30.611Z,286.70
2022-12-29T18:44:00.363Z,256.23
2022-12-29T18:46:31.522Z,280.43
2022-12-29T18:49:00.918Z,300.87
2022-12-29T18:51:30.258Z,332.43
2022-12-29T18:53:59.358Z,366.43
2022-12-29T18:56:28.687Z,324.53
2022-12-29T18:58:57.649Z,321.67
2022-12-29T19:01:28.846Z,297.07
2022-12-29T19:03:59.656Z,311.67
2022-12-29T19:06:29.042Z,273.70
2022-12-29T19:08:58.302Z,276.47
2022-12-29T19:11:27.823Z,277.87
2022-12-29T19:13:57.020Z,314.07
2022-12-29T19:16:27.212Z,342.73
2022-12-29T19:19:09.100Z,329.23
2022-12-29T19:21:40.898Z,349.03
2022-12-29T19:24:10.276Z,311.53
2022-12-29T19:26:40.854Z,305.63
2022-12-29T19:29:15.221Z,328.17
2022-12-29T19:31:44.726Z,328.43
2022-12-29T19:34:16.249Z,327.27
2022-12-29T19:36:47.551Z,321.13
2022-12-29T19:39:16.609Z,378.57
2022-12-29T19:41:45.689Z,342.93
2022-12-29T19:44:14.841Z,378.67
2022-12-29T19:46:44.027Z,365.60
2022-12-29T19:49:13.068Z,351.60
2022-12-29T19:51:42.235Z,357.03
2022-12-29T19:54:12.748Z,381.30
2022-12-29T19:56:44.604Z,368.80
2022-12-29T19:59:13.879Z,363.40
2022-12-29T20:01:43.181Z,366.50
2022-12-29T20:04:12.534Z,407.13
2022-12-29T20:06:41.597Z,395.10
2022-12-29T20:09:12.213Z,410.00
2022-12-29T20:11:41.203Z,390.33
2022-12-29T20:14:10.141Z,384.57
2022-12-29T20:17:02.473Z,360.23
2022-12-29T20:19:28.386Z,357.37
2022-12-29T20:21:57.831Z,377.00
2022-12-29T20:24:28.671Z,378.33
2022-12-29T20:26:59.355Z,435.70
2022-12-29T20:29:29.786Z,396.60
2022-12-29T20:31:58.877Z,485.87
2022-12-29T20:34:27.869Z,834.30
2022-12-29T20:36:56.882Z,564.10
2022-12-29T20:39:25.923Z,650.63
2022-12-29T20:41:56.415Z,462.87
2022-12-29T20:44:44.246Z,831.80
2022-12-29T20:47:13.525Z,1215.27
2022-12-29T20:49:42.675Z,1459.87
2022-12-29T20:52:12.577Z,508.43
2022-12-29T20:54:41.704Z,340.40
2022-12-29T20:57:12.602Z,298.13
2022-12-29T20:59:41.855Z,294.83
2022-12-29T21:02:21.021Z,270.67
2022-12-29T21:05:23.197Z,353.90
2022-12-29T21:07:42.051Z,284.03
2022-12-29T21:10:11.480Z,310.63
2022-12-29T21:12:42.641Z,297.53
2022-12-29T21:15:14.561Z,228.30
2022-12-29T21:17:44.109Z,303.37
2022-12-29T21:20:20.333Z,277.27
2022-12-29T21:22:50.063Z,257.83
2022-12-29T21:25:19.217Z,303.33
2022-12-29T21:27:49.704Z,314.80
2022-12-29T21:30:18.908Z,318.63
2022-12-29T21:32:48.133Z,243.33
2022-12-29T21:35:17.256Z,281.33
2022-12-29T21:37:46.234Z,250.17
2022-12-29T21:40:15.530Z,254.13
2022-12-29T21:42:44.743Z,252.03
2022-12-29T21:45:28.907Z,230.77
2022-12-29T21:48:18.367Z,243.43
2022-12-29T21:51:06.818Z,241.27
2022-12-29T21:53:40.815Z,189.83
2022-12-29T21:56:13.237Z,192.10
2022-12-29T21:59:01.235Z,202.80
2022-12-29T22:01:51.544Z,210.97
2022-12-29T22:04:40.362Z,203.40
2022-12-29T22:07:28.733Z,308.33
2022-12-29T22:10:15.084Z,294.77
2022-12-29T22:12:59.416Z,330.83
2022-12-29T22:15:29.341Z,243.00
2022-12-29T22:18:01.139Z,238.67
2022-12-29T22:20:48.979Z,386.03
2022-12-29T22:23:18.268Z,282.63
2022-12-29T22:25:48.866Z,272.50
2022-12-29T22:28:18.334Z,272.17
2022-12-29T22:30:47.268Z,258.60
2022-12-29T22:33:17.820Z,221.60
2022-12-29T22:35:47.191Z,203.53
2022-12-29T22:38:16.563Z,261.73
2022-12-29T22:40:46.144Z,240.23
2022-12-29T22:43:15.729Z,262.40
2022-12-29T22:45:44.678Z,254.13
2022-12-29T22:48:13.694Z,291.97
2022-12-29T22:50:44.134Z,307.13
2022-12-29T22:53:13.324Z,320.37
2022-12-29T22:55:42.413Z,314.50
2022-12-29T22:58:11.534Z,311.07
2022-12-29T23:00:40.627Z,335.57
2022-12-29T23:03:09.846Z,443.47
2022-12-29T23:05:38.966Z,446.00
2022-12-29T23:08:09.394Z,388.83
2022-12-29T23:10:38.559Z,443.30
2022-12-29T23:13:07.673Z,452.77
2022-12-29T23:15:36.801Z,412.30
2022-12-29T23:18:05.987Z,332.27
2022-12-29T23:20:35.241Z,320.37
2022-12-29T23:23:04.400Z,337.30
2022-12-29T23:25:37.978Z,422.57
2022-12-29T23:28:25.547Z,387.33
2022-12-29T23:30:54.694Z,382.77
2022-12-29T23:33:23.942Z,339.30
2022-12-29T23:35:53.147Z,273.50
2022-12-29T23:38:22.225Z,283.53
2022-12-29T23:41:12.254Z,260.40
2022-12-29T23:43:41.450Z,298.60
2022-12-29T23:46:11.695Z,255.57
2022-12-29T23:48:40.812Z,240.73
2022-12-29T23:51:10.366Z,243.13
2022-12-29T23:53:41.306Z,296.03
2022-12-29T23:56:14.409Z,303.17
2022-12-29T23:58:43.718Z,295.70
